sensor_id;sensor_type;location;lat;lon;timestamp;P1;durP1;ratioP1;P2;durP2;ratioP2
60416;SDS011;46263;44.726;10.396;2023-02-28T00:01:05;12.02;;;7.50;;
60416;SDS011;46263;44.726;10.396;2023-02-28T00:03:31;14.13;;;7.80;;
60416;SDS011;46263;44.726;10.396;2023-02-28T00:06:00;11.52;;;7.47;;
60416;SDS011;46263;44.726;10.396;2023-02-28T00:08:29;14.95;;;8.40;;
60416;SDS011;46263;44.726;10.396;2023-02-28T00:10:55;16.00;;;7.68;;
60416;SDS011;46263;44.726;10.396;2023-02-28T00:13:20;12.95;;;8.10;;
60416;SDS011;46263;44.726;10.396;2023-02-28T00:15:46;14.18;;;8.52;;
60416;SDS011;46263;44.726;10.396;2023-02-28T00:18:12;15.05;;;8.00;;
60416;SDS011;46263;44.726;10.396;2023-02-28T00:20:38;12.20;;;8.05;;
60416;SDS011;46263;44.726;10.396;2023-02-28T00:23:04;11.20;;;7.82;;
60416;SDS011;46263;44.726;10.396;2023-02-28T00:25:29;12.50;;;8.00;;
60416;SDS011;46263;44.726;10.396;2023-02-28T00:27:55;18.52;;;9.60;;
60416;SDS011;46263;44.726;10.396;2023-02-28T00:30:21;13.60;;;8.30;;
60416;SDS011;46263;44.726;10.396;2023-02-28T00:32:47;11.70;;;7.93;;
60416;SDS011;46263;44.726;10.396;2023-02-28T00:35:13;11.35;;;8.38;;
60416;SDS011;46263;44.726;10.396;2023-02-28T00:37:39;16.75;;;9.00;;
60416;SDS011;46263;44.726;10.396;2023-02-28T00:40:05;16.08;;;8.38;;
60416;SDS011;46263;44.726;10.396;2023-02-28T00:42:32;12.73;;;8.07;;
60416;SDS011;46263;44.726;10.396;2023-02-28T00:44:58;15.55;;;9.98;;
60416;SDS011;46263;44.726;10.396;2023-02-28T00:47:23;15.10;;;8.90;;
60416;SDS011;46263;44.726;10.396;2023-02-28T00:49:49;13.50;;;8.45;;
60416;SDS011;46263;44.726;10.396;2023-02-28T00:52:14;14.60;;;8.75;;
60416;SDS011;46263;44.726;10.396;2023-02-28T00:54:39;15.52;;;8.00;;
60416;SDS011;46263;44.726;10.396;2023-02-28T00:57:05;12.63;;;9.00;;
60416;SDS011;46263;44.726;10.396;2023-02-28T00:59:30;14.90;;;9.48;;
60416;SDS011;46263;44.726;10.396;2023-02-28T01:01:56;15.05;;;9.00;;
60416;SDS011;46263;44.726;10.396;2023-02-28T01:04:21;16.60;;;10.00;;
60416;SDS011;46263;44.726;10.396;2023-02-28T01:06:47;12.82;;;8.57;;
60416;SDS011;46263;44.726;10.396;2023-02-28T01:09:12;11.88;;;8.13;;
60416;SDS011;46263;44.726;10.396;2023-02-28T01:11:38;13.90;;;8.20;;
60416;SDS011;46263;44.726;10.396;2023-02-28T01:14:04;13.27;;;8.07;;
60416;SDS011;46263;44.726;10.396;2023-02-28T01:16:29;13.57;;;8.55;;
60416;SDS011;46263;44.726;10.396;2023-02-28T01:18:55;12.63;;;7.93;;
60416;SDS011;46263;44.726;10.396;2023-02-28T01:21:21;13.07;;;8.43;;
60416;SDS011;46263;44.726;10.396;2023-02-28T01:23:47;12.00;;;7.88;;
60416;SDS011;46263;44.726;10.396;2023-02-28T01:26:20;10.75;;;7.63;;
60416;SDS011;46263;44.726;10.396;2023-02-28T01:28:48;15.15;;;8.15;;
60416;SDS011;46263;44.726;10.396;2023-02-28T01:31:14;17.67;;;8.20;;
60416;SDS011;46263;44.726;10.396;2023-02-28T01:33:40;17.40;;;7.80;;
60416;SDS011;46263;44.726;10.396;2023-02-28T01:36:10;13.77;;;8.25;;
60416;SDS011;46263;44.726;10.396;2023-02-28T01:38:37;13.38;;;7.32;;
60416;SDS011;46263;44.726;10.396;2023-02-28T01:41:03;13.00;;;7.55;;
60416;SDS011;46263;44.726;10.396;2023-02-28T01:43:52;14.93;;;7.63;;
60416;SDS011;46263;44.726;10.396;2023-02-28T01:46:15;15.23;;;8.43;;
60416;SDS011;46263;44.726;10.396;2023-02-28T01:48:45;13.48;;;7.97;;
60416;SDS011;46263;44.726;10.396;2023-02-28T01:51:33;15.20;;;8.50;;
60416;SDS011;46263;44.726;10.396;2023-02-28T01:54:12;11.82;;;7.35;;
60416;SDS011;46263;44.726;10.396;2023-02-28T01:56:43;14.43;;;8.32;;
60416;SDS011;46263;44.726;10.396;2023-02-28T01:59:23;13.30;;;7.38;;
60416;SDS011;46263;44.726;10.396;2023-02-28T02:01:54;12.93;;;7.60;;
60416;SDS011;46263;44.726;10.396;2023-02-28T02:04:20;10.23;;;7.55;;
60416;SDS011;46263;44.726;10.396;2023-02-28T02:06:48;12.07;;;8.02;;
60416;SDS011;46263;44.726;10.396;2023-02-28T02:09:14;13.88;;;7.75;;
60416;SDS011;46263;44.726;10.396;2023-02-28T02:11:41;14.82;;;7.78;;
60416;SDS011;46263;44.726;10.396;2023-02-28T02:14:22;11.57;;;7.40;;
60416;SDS011;46263;44.726;10.396;2023-02-28T02:25:47;9.82;;;6.90;;
60416;SDS011;46263;44.726;10.396;2023-02-28T02:39:48;10.07;;;6.72;;
60416;SDS011;46263;44.726;10.396;2023-02-28T02:42:28;12.63;;;7.38;;
60416;SDS011;46263;44.726;10.396;2023-02-28T02:45:48;11.65;;;7.35;;
60416;SDS011;46263;44.726;10.396;2023-02-28T02:48:11;8.90;;;7.13;;
60416;SDS011;46263;44.726;10.396;2023-02-28T02:50:44;13.23;;;7.80;;
60416;SDS011;46263;44.726;10.396;2023-02-28T02:55:43;12.70;;;7.65;;
60416;SDS011;46263;44.726;10.396;2023-02-28T02:58:14;11.45;;;7.47;;
60416;SDS011;46263;44.726;10.396;2023-02-28T03:00:42;12.98;;;8.02;;
60416;SDS011;46263;44.726;10.396;2023-02-28T03:05:46;10.95;;;7.60;;
60416;SDS011;46263;44.726;10.396;2023-02-28T03:08:14;11.70;;;7.75;;
60416;SDS011;46263;44.726;10.396;2023-02-28T03:16:03;9.13;;;6.75;;
60416;SDS011;46263;44.726;10.396;2023-02-28T03:21:17;11.73;;;7.28;;
60416;SDS011;46263;44.726;10.396;2023-02-28T03:26:55;12.82;;;7.25;;
60416;SDS011;46263;44.726;10.396;2023-02-28T03:29:37;11.73;;;7.60;;
60416;SDS011;46263;44.726;10.396;2023-02-28T03:32:11;10.40;;;7.55;;
60416;SDS011;46263;44.726;10.396;2023-02-28T03:34:49;9.40;;;7.00;;
60416;SDS011;46263;44.726;10.396;2023-02-28T03:37:22;8.98;;;7.22;;
60416;SDS011;46263;44.726;10.396;2023-02-28T03:39:54;8.82;;;6.88;;
60416;SDS011;46263;44.726;10.396;2023-02-28T03:42:27;9.95;;;6.80;;
60416;SDS011;46263;44.726;10.396;2023-02-28T03:45:18;11.27;;;6.93;;
60416;SDS011;46263;44.726;10.396;2023-02-28T03:50:21;10.32;;;7.07;;
60416;SDS011;46263;44.726;10.396;2023-02-28T03:55:51;11.95;;;8.05;;
60416;SDS011;46263;44.726;10.396;2023-02-28T04:03:39;10.75;;;7.35;;
60416;SDS011;46263;44.726;10.396;2023-02-28T04:06:05;10.63;;;7.85;;
60416;SDS011;46263;44.726;10.396;2023-02-28T04:08:33;10.30;;;7.57;;
60416;SDS011;46263;44.726;10.396;2023-02-28T04:11:04;10.82;;;7.97;;
60416;SDS011;46263;44.726;10.396;2023-02-28T04:13:37;7.53;;;6.47;;
60416;SDS011;46263;44.726;10.396;2023-02-28T04:16:06;10.57;;;7.97;;
60416;SDS011;46263;44.726;10.396;2023-02-28T04:18:37;8.90;;;7.25;;
60416;SDS011;46263;44.726;10.396;2023-02-28T04:21:03;9.90;;;7.70;;
60416;SDS011;46263;44.726;10.396;2023-02-28T04:23:29;12.68;;;8.02;;
60416;SDS011;46263;44.726;10.396;2023-02-28T04:25:58;10.90;;;7.95;;
60416;SDS011;46263;44.726;10.396;2023-02-28T04:28:24;9.80;;;7.28;;
60416;SDS011;46263;44.726;10.396;2023-02-28T04:30:59;10.30;;;7.15;;
60416;SDS011;46263;44.726;10.396;2023-02-28T04:33:27;10.90;;;7.50;;
60416;SDS011;46263;44.726;10.396;2023-02-28T04:36:00;8.88;;;7.47;;
60416;SDS011;46263;44.726;10.396;2023-02-28T04:38:28;9.68;;;7.18;;
60416;SDS011;46263;44.726;10.396;2023-02-28T04:40:56;10.40;;;7.32;;
60416;SDS011;46263;44.726;10.396;2023-02-28T04:43:22;10.82;;;7.85;;
60416;SDS011;46263;44.726;10.396;2023-02-28T04:45:47;8.93;;;7.40;;
60416;SDS011;46263;44.726;10.396;2023-02-28T04:48:13;10.30;;;7.65;;
60416;SDS011;46263;44.726;10.396;2023-02-28T04:50:38;9.30;;;7.25;;
60416;SDS011;46263;44.726;10.396;2023-02-28T04:53:04;9.43;;;6.82;;
60416;SDS011;46263;44.726;10.396;2023-02-28T04:55:29;9.30;;;7.45;;
60416;SDS011;46263;44.726;10.396;2023-02-28T04:57:55;10.20;;;7.38;;
60416;SDS011;46263;44.726;10.396;2023-02-28T05:00:20;11.98;;;7.45;;
60416;SDS011;46263;44.726;10.396;2023-02-28T05:02:46;9.75;;;7.88;;
60416;SDS011;46263;44.726;10.396;2023-02-28T05:05:11;10.43;;;8.20;;
60416;SDS011;46263;44.726;10.396;2023-02-28T05:07:43;10.02;;;7.20;;
60416;SDS011;46263;44.726;10.396;2023-02-28T05:10:09;10.43;;;7.20;;
60416;SDS011;46263;44.726;10.396;2023-02-28T05:12:35;9.40;;;7.63;;
60416;SDS011;46263;44.726;10.396;2023-02-28T05:15:01;9.13;;;7.50;;
60416;SDS011;46263;44.726;10.396;2023-02-28T05:17:27;9.23;;;6.97;;
60416;SDS011;46263;44.726;10.396;2023-02-28T05:19:53;10.82;;;7.50;;
60416;SDS011;46263;44.726;10.396;2023-02-28T05:22:18;10.52;;;7.45;;
60416;SDS011;46263;44.726;10.396;2023-02-28T05:24:43;9.07;;;7.07;;
60416;SDS011;46263;44.726;10.396;2023-02-28T05:27:09;9.45;;;7.55;;
60416;SDS011;46263;44.726;10.396;2023-02-28T05:29:35;12.73;;;7.57;;
60416;SDS011;46263;44.726;10.396;2023-02-28T05:32:08;8.63;;;6.85;;
60416;SDS011;46263;44.726;10.396;2023-02-28T05:34:40;10.10;;;7.78;;
60416;SDS011;46263;44.726;10.396;2023-02-28T05:37:07;9.07;;;7.22;;
60416;SDS011;46263;44.726;10.396;2023-02-28T05:39:37;11.10;;;7.63;;
60416;SDS011;46263;44.726;10.396;2023-02-28T05:42:02;9.27;;;7.40;;
60416;SDS011;46263;44.726;10.396;2023-02-28T05:44:28;9.55;;;7.53;;
60416;SDS011;46263;44.726;10.396;2023-02-28T05:46:53;11.23;;;8.13;;
60416;SDS011;46263;44.726;10.396;2023-02-28T05:49:19;9.85;;;7.53;;
60416;SDS011;46263;44.726;10.396;2023-02-28T05:51:44;9.52;;;6.95;;
60416;SDS011;46263;44.726;10.396;2023-02-28T05:54:10;11.90;;;7.85;;
60416;SDS011;46263;44.726;10.396;2023-02-28T05:56:35;11.32;;;7.60;;
60416;SDS011;46263;44.726;10.396;2023-02-28T05:59:03;11.35;;;8.18;;
60416;SDS011;46263;44.726;10.396;2023-02-28T06:02:02;9.82;;;7.07;;
60416;SDS011;46263;44.726;10.396;2023-02-28T06:04:20;11.45;;;7.63;;
60416;SDS011;46263;44.726;10.396;2023-02-28T06:06:46;11.60;;;7.38;;
60416;SDS011;46263;44.726;10.396;2023-02-28T06:09:13;8.88;;;7.57;;
60416;SDS011;46263;44.726;10.396;2023-02-28T06:11:39;12.25;;;7.65;;
60416;SDS011;46263;44.726;10.396;2023-02-28T06:14:04;10.13;;;8.20;;
60416;SDS011;46263;44.726;10.396;2023-02-28T06:16:31;13.15;;;8.20;;
60416;SDS011;46263;44.726;10.396;2023-02-28T06:18:58;10.30;;;8.20;;
60416;SDS011;46263;44.726;10.396;2023-02-28T06:21:24;10.20;;;8.15;;
60416;SDS011;46263;44.726;10.396;2023-02-28T06:23:50;14.82;;;8.48;;
60416;SDS011;46263;44.726;10.396;2023-02-28T06:26:16;11.95;;;8.23;;
60416;SDS011;46263;44.726;10.396;2023-02-28T06:28:41;10.75;;;8.27;;
60416;SDS011;46263;44.726;10.396;2023-02-28T06:31:08;12.68;;;8.85;;
60416;SDS011;46263;44.726;10.396;2023-02-28T06:33:34;14.35;;;9.27;;
60416;SDS011;46263;44.726;10.396;2023-02-28T06:36:01;10.18;;;8.60;;
60416;SDS011;46263;44.726;10.396;2023-02-28T06:38:27;13.57;;;9.45;;
60416;SDS011;46263;44.726;10.396;2023-02-28T06:40:56;12.48;;;9.43;;
60416;SDS011;46263;44.726;10.396;2023-02-28T06:43:23;17.02;;;9.80;;
60416;SDS011;46263;44.726;10.396;2023-02-28T06:45:49;11.52;;;9.75;;
60416;SDS011;46263;44.726;10.396;2023-02-28T06:48:15;12.05;;;9.38;;
60416;SDS011;46263;44.726;10.396;2023-02-28T06:50:41;12.35;;;8.98;;
60416;SDS011;46263;44.726;10.396;2023-02-28T06:53:07;12.50;;;9.18;;
60416;SDS011;46263;44.726;10.396;2023-02-28T06:55:33;15.02;;;9.88;;
60416;SDS011;46263;44.726;10.396;2023-02-28T06:57:58;15.45;;;10.35;;
60416;SDS011;46263;44.726;10.396;2023-02-28T07:00:24;12.70;;;10.35;;
60416;SDS011;46263;44.726;10.396;2023-02-28T07:02:50;16.25;;;10.27;;
60416;SDS011;46263;44.726;10.396;2023-02-28T07:05:19;11.68;;;10.10;;
60416;SDS011;46263;44.726;10.396;2023-02-28T07:07:44;12.40;;;9.23;;
60416;SDS011;46263;44.726;10.396;2023-02-28T07:10:11;12.40;;;9.65;;
60416;SDS011;46263;44.726;10.396;2023-02-28T07:12:38;14.80;;;10.55;;
60416;SDS011;46263;44.726;10.396;2023-02-28T07:15:04;13.65;;;10.20;;
60416;SDS011;46263;44.726;10.396;2023-02-28T07:17:30;14.68;;;10.93;;
60416;SDS011;46263;44.726;10.396;2023-02-28T07:19:55;13.40;;;9.93;;
60416;SDS011;46263;44.726;10.396;2023-02-28T07:22:21;12.30;;;9.52;;
60416;SDS011;46263;44.726;10.396;2023-02-28T07:24:47;11.65;;;9.13;;
60416;SDS011;46263;44.726;10.396;2023-02-28T07:27:12;14.07;;;10.20;;
60416;SDS011;46263;44.726;10.396;2023-02-28T07:29:48;11.15;;;8.82;;
60416;SDS011;46263;44.726;10.396;2023-02-28T07:32:14;13.05;;;9.95;;
60416;SDS011;46263;44.726;10.396;2023-02-28T07:34:39;12.85;;;9.40;;
60416;SDS011;46263;44.726;10.396;2023-02-28T07:37:05;12.23;;;9.65;;
60416;SDS011;46263;44.726;10.396;2023-02-28T07:39:30;16.55;;;9.73;;
60416;SDS011;46263;44.726;10.396;2023-02-28T07:41:56;12.05;;;8.95;;
60416;SDS011;46263;44.726;10.396;2023-02-28T07:44:21;13.50;;;9.60;;
60416;SDS011;46263;44.726;10.396;2023-02-28T07:46:47;14.23;;;8.85;;
60416;SDS011;46263;44.726;10.396;2023-02-28T07:49:12;19.85;;;10.55;;
60416;SDS011;46263;44.726;10.396;2023-02-28T07:51:37;14.30;;;9.77;;
60416;SDS011;46263;44.726;10.396;2023-02-28T07:54:03;14.25;;;9.35;;
60416;SDS011;46263;44.726;10.396;2023-02-28T07:56:29;13.75;;;9.25;;
60416;SDS011;46263;44.726;10.396;2023-02-28T07:58:54;12.27;;;10.18;;
60416;SDS011;46263;44.726;10.396;2023-02-28T08:01:20;14.75;;;10.65;;
60416;SDS011;46263;44.726;10.396;2023-02-28T08:03:45;14.77;;;10.52;;
60416;SDS011;46263;44.726;10.396;2023-02-28T08:06:21;16.85;;;10.40;;
60416;SDS011;46263;44.726;10.396;2023-02-28T08:08:48;13.93;;;10.80;;
60416;SDS011;46263;44.726;10.396;2023-02-28T08:11:14;14.05;;;10.10;;
60416;SDS011;46263;44.726;10.396;2023-02-28T08:13:40;17.55;;;10.82;;
60416;SDS011;46263;44.726;10.396;2023-02-28T08:16:07;15.63;;;11.10;;
60416;SDS011;46263;44.726;10.396;2023-02-28T08:18:32;15.95;;;10.98;;
60416;SDS011;46263;44.726;10.396;2023-02-28T08:20:58;16.65;;;10.57;;
60416;SDS011;46263;44.726;10.396;2023-02-28T08:23:24;15.27;;;11.15;;
60416;SDS011;46263;44.726;10.396;2023-02-28T08:25:53;16.90;;;11.27;;
60416;SDS011;46263;44.726;10.396;2023-02-28T08:28:20;16.65;;;12.55;;
60416;SDS011;46263;44.726;10.396;2023-02-28T08:30:45;16.20;;;11.45;;
60416;SDS011;46263;44.726;10.396;2023-02-28T08:33:11;17.48;;;11.30;;
60416;SDS011;46263;44.726;10.396;2023-02-28T08:35:36;16.45;;;11.63;;
60416;SDS011;46263;44.726;10.396;2023-02-28T08:38:02;17.08;;;11.55;;
60416;SDS011;46263;44.726;10.396;2023-02-28T08:40:28;15.80;;;11.43;;
60416;SDS011;46263;44.726;10.396;2023-02-28T08:42:53;15.38;;;10.82;;
60416;SDS011;46263;44.726;10.396;2023-02-28T08:45:19;16.25;;;11.40;;
60416;SDS011;46263;44.726;10.396;2023-02-28T08:47:44;15.48;;;10.95;;
60416;SDS011;46263;44.726;10.396;2023-02-28T08:50:09;15.70;;;11.10;;
60416;SDS011;46263;44.726;10.396;2023-02-28T08:52:35;16.95;;;10.20;;
60416;SDS011;46263;44.726;10.396;2023-02-28T08:55:01;16.92;;;10.43;;
60416;SDS011;46263;44.726;10.396;2023-02-28T08:57:26;18.25;;;11.18;;
60416;SDS011;46263;44.726;10.396;2023-02-28T08:59:52;14.02;;;9.98;;
60416;SDS011;46263;44.726;10.396;2023-02-28T09:02:18;14.15;;;10.23;;
60416;SDS011;46263;44.726;10.396;2023-02-28T09:04:43;17.05;;;13.70;;
60416;SDS011;46263;44.726;10.396;2023-02-28T09:07:12;15.73;;;12.35;;
60416;SDS011;46263;44.726;10.396;2023-02-28T09:09:37;12.65;;;10.52;;
60416;SDS011;46263;44.726;10.396;2023-02-28T09:12:18;14.13;;;10.68;;
60416;SDS011;46263;44.726;10.396;2023-02-28T09:14:47;12.55;;;10.00;;
60416;SDS011;46263;44.726;10.396;2023-02-28T09:17:12;15.30;;;10.32;;
60416;SDS011;46263;44.726;10.396;2023-02-28T09:19:38;15.93;;;10.77;;
60416;SDS011;46263;44.726;10.396;2023-02-28T09:22:03;15.98;;;9.88;;
60416;SDS011;46263;44.726;10.396;2023-02-28T09:24:29;20.08;;;10.63;;
60416;SDS011;46263;44.726;10.396;2023-02-28T09:26:56;14.77;;;10.43;;
60416;SDS011;46263;44.726;10.396;2023-02-28T09:29:22;15.25;;;10.63;;
60416;SDS011;46263;44.726;10.396;2023-02-28T09:31:47;13.70;;;9.68;;
60416;SDS011;46263;44.726;10.396;2023-02-28T09:34:13;17.02;;;10.90;;
60416;SDS011;46263;44.726;10.396;2023-02-28T09:36:39;14.27;;;10.23;;
60416;SDS011;46263;44.726;10.396;2023-02-28T09:39:04;15.45;;;10.02;;
60416;SDS011;46263;44.726;10.396;2023-02-28T09:41:32;15.60;;;10.40;;
60416;SDS011;46263;44.726;10.396;2023-02-28T09:44:26;15.32;;;10.35;;
60416;SDS011;46263;44.726;10.396;2023-02-28T09:46:57;13.65;;;10.02;;
60416;SDS011;46263;44.726;10.396;2023-02-28T09:49:33;10.65;;;9.48;;
60416;SDS011;46263;44.726;10.396;2023-02-28T09:52:04;16.58;;;9.38;;
60416;SDS011;46263;44.726;10.396;2023-02-28T09:54:34;14.80;;;10.73;;
60416;SDS011;46263;44.726;10.396;2023-02-28T09:57:02;12.48;;;9.32;;
60416;SDS011;46263;44.726;10.396;2023-02-28T10:02:20;14.18;;;10.25;;
60416;SDS011;46263;44.726;10.396;2023-02-28T10:04:50;16.48;;;10.00;;
60416;SDS011;46263;44.726;10.396;2023-02-28T10:10:01;15.80;;;10.02;;
60416;SDS011;46263;44.726;10.396;2023-02-28T10:12:29;14.15;;;9.77;;
60416;SDS011;46263;44.726;10.396;2023-02-28T10:14:58;14.32;;;10.18;;
60416;SDS011;46263;44.726;10.396;2023-02-28T10:17:31;16.38;;;10.48;;
60416;SDS011;46263;44.726;10.396;2023-02-28T10:20:12;16.35;;;10.30;;
60416;SDS011;46263;44.726;10.396;2023-02-28T10:22:52;15.23;;;10.05;;
60416;SDS011;46263;44.726;10.396;2023-02-28T10:25:32;16.20;;;10.43;;
60416;SDS011;46263;44.726;10.396;2023-02-28T10:28:13;15.57;;;9.93;;
60416;SDS011;46263;44.726;10.396;2023-02-28T10:30:44;13.15;;;9.25;;
60416;SDS011;46263;44.726;10.396;2023-02-28T10:33:17;16.35;;;10.13;;
60416;SDS011;46263;44.726;10.396;2023-02-28T10:35:44;13.48;;;9.73;;
60416;SDS011;46263;44.726;10.396;2023-02-28T10:38:15;14.85;;;9.70;;
60416;SDS011;46263;44.726;10.396;2023-02-28T10:40:42;12.85;;;9.40;;
60416;SDS011;46263;44.726;10.396;2023-02-28T10:45:40;12.02;;;9.55;;
60416;SDS011;46263;44.726;10.396;2023-02-28T10:56:05;11.18;;;8.77;;
60416;SDS011;46263;44.726;10.396;2023-02-28T11:03:53;12.20;;;7.95;;
60416;SDS011;46263;44.726;10.396;2023-02-28T11:06:20;14.65;;;9.10;;
60416;SDS011;46263;44.726;10.396;2023-02-28T11:11:41;15.02;;;10.07;;
60416;SDS011;46263;44.726;10.396;2023-02-28T11:14:19;10.52;;;8.70;;
60416;SDS011;46263;44.726;10.396;2023-02-28T11:16:47;10.43;;;8.80;;
60416;SDS011;46263;44.726;10.396;2023-02-28T11:19:22;13.90;;;8.98;;
60416;SDS011;46263;44.726;10.396;2023-02-28T11:21:55;13.23;;;9.30;;
60416;SDS011;46263;44.726;10.396;2023-02-28T11:24:31;16.15;;;10.32;;
60416;SDS011;46263;44.726;10.396;2023-02-28T11:27:10;11.80;;;9.55;;
60416;SDS011;46263;44.726;10.396;2023-02-28T11:29:49;13.02;;;10.38;;
60416;SDS011;46263;44.726;10.396;2023-02-28T11:32:19;14.88;;;10.43;;
60416;SDS011;46263;44.726;10.396;2023-02-28T11:34:47;17.75;;;9.93;;
60416;SDS011;46263;44.726;10.396;2023-02-28T11:37:39;19.67;;;9.82;;
60416;SDS011;46263;44.726;10.396;2023-02-28T11:40:08;14.75;;;10.07;;
60416;SDS011;46263;44.726;10.396;2023-02-28T11:42:43;13.60;;;9.10;;
60416;SDS011;46263;44.726;10.396;2023-02-28T11:47:57;13.98;;;9.77;;
60416;SDS011;46263;44.726;10.396;2023-02-28T11:53:01;14.20;;;9.57;;
60416;SDS011;46263;44.726;10.396;2023-02-28T11:55:49;12.98;;;9.48;;
60416;SDS011;46263;44.726;10.396;2023-02-28T11:58:38;13.48;;;9.63;;
60416;SDS011;46263;44.726;10.396;2023-02-28T12:20:37;10.88;;;8.52;;
60416;SDS011;46263;44.726;10.396;2023-02-28T12:28:16;13.30;;;8.82;;
60416;SDS011;46263;44.726;10.396;2023-02-28T12:30:49;11.82;;;8.35;;
60416;SDS011;46263;44.726;10.396;2023-02-28T12:33:22;12.27;;;8.50;;
60416;SDS011;46263;44.726;10.396;2023-02-28T12:35:57;13.25;;;9.23;;
60416;SDS011;46263;44.726;10.396;2023-02-28T12:38:29;10.93;;;8.90;;
60416;SDS011;46263;44.726;10.396;2023-02-28T12:41:02;13.90;;;8.93;;
60416;SDS011;46263;44.726;10.396;2023-02-28T12:43:34;13.15;;;9.48;;
60416;SDS011;46263;44.726;10.396;2023-02-28T12:46:07;15.38;;;9.05;;
60416;SDS011;46263;44.726;10.396;2023-02-28T12:48:43;13.30;;;8.77;;
60416;SDS011;46263;44.726;10.396;2023-02-28T12:51:12;13.82;;;9.70;;
60416;SDS011;46263;44.726;10.396;2023-02-28T12:59:44;12.02;;;9.82;;
60416;SDS011;46263;44.726;10.396;2023-02-28T13:08:37;13.80;;;10.45;;
60416;SDS011;46263;44.726;10.396;2023-02-28T13:19:41;14.55;;;10.10;;
60416;SDS011;46263;44.726;10.396;2023-02-28T13:22:21;13.02;;;10.75;;
60416;SDS011;46263;44.726;10.396;2023-02-28T13:25:13;12.55;;;9.65;;
60416;SDS011;46263;44.726;10.396;2023-02-28T13:27:54;16.65;;;10.70;;
60416;SDS011;46263;44.726;10.396;2023-02-28T13:35:44;16.40;;;9.65;;
60416;SDS011;46263;44.726;10.396;2023-02-28T13:38:24;13.80;;;10.48;;
60416;SDS011;46263;44.726;10.396;2023-02-28T13:46:32;14.27;;;11.13;;
60416;SDS011;46263;44.726;10.396;2023-02-28T13:52:32;16.83;;;11.80;;
60416;SDS011;46263;44.726;10.396;2023-02-28T13:57:50;13.57;;;10.73;;
60416;SDS011;46263;44.726;10.396;2023-02-28T14:06:15;16.73;;;12.15;;
60416;SDS011;46263;44.726;10.396;2023-02-28T14:08:46;14.75;;;11.10;;
60416;SDS011;46263;44.726;10.396;2023-02-28T14:11:33;17.90;;;12.02;;
60416;SDS011;46263;44.726;10.396;2023-02-28T14:14:01;15.02;;;10.10;;
60416;SDS011;46263;44.726;10.396;2023-02-28T14:16:47;15.80;;;11.95;;
60416;SDS011;46263;44.726;10.396;2023-02-28T14:19:27;19.17;;;12.10;;
60416;SDS011;46263;44.726;10.396;2023-02-28T14:36:06;16.95;;;11.38;;
60416;SDS011;46263;44.726;10.396;2023-02-28T14:38:36;19.83;;;12.07;;
60416;SDS011;46263;44.726;10.396;2023-02-28T14:41:19;16.67;;;11.40;;
60416;SDS011;46263;44.726;10.396;2023-02-28T14:43:51;16.63;;;12.00;;
60416;SDS011;46263;44.726;10.396;2023-02-28T14:46:19;15.07;;;11.18;;
60416;SDS011;46263;44.726;10.396;2023-02-28T14:48:46;17.38;;;10.80;;
60416;SDS011;46263;44.726;10.396;2023-02-28T14:51:18;14.90;;;10.77;;
60416;SDS011;46263;44.726;10.396;2023-02-28T14:53:48;15.48;;;11.60;;
60416;SDS011;46263;44.726;10.396;2023-02-28T14:56:21;19.50;;;11.68;;
60416;SDS011;46263;44.726;10.396;2023-02-28T14:58:51;24.30;;;13.35;;
60416;SDS011;46263;44.726;10.396;2023-02-28T15:01:19;16.25;;;12.02;;
60416;SDS011;46263;44.726;10.396;2023-02-28T15:03:47;16.77;;;11.95;;
60416;SDS011;46263;44.726;10.396;2023-02-28T15:06:16;15.73;;;11.20;;
60416;SDS011;46263;44.726;10.396;2023-02-28T15:08:43;19.45;;;12.32;;
60416;SDS011;46263;44.726;10.396;2023-02-28T15:11:16;17.35;;;12.02;;
60416;SDS011;46263;44.726;10.396;2023-02-28T15:13:50;18.20;;;12.93;;
60416;SDS011;46263;44.726;10.396;2023-02-28T15:16:20;23.50;;;12.45;;
60416;SDS011;46263;44.726;10.396;2023-02-28T15:18:57;18.05;;;12.25;;
60416;SDS011;46263;44.726;10.396;2023-02-28T15:21:29;14.73;;;11.50;;
60416;SDS011;46263;44.726;10.396;2023-02-28T15:24:07;15.03;;;11.27;;
60416;SDS011;46263;44.726;10.396;2023-02-28T15:26:38;19.30;;;12.20;;
60416;SDS011;46263;44.726;10.396;2023-02-28T15:29:16;17.48;;;12.52;;
60416;SDS011;46263;44.726;10.396;2023-02-28T15:31:46;17.13;;;12.23;;
60416;SDS011;46263;44.726;10.396;2023-02-28T15:37:01;19.42;;;11.70;;
60416;SDS011;46263;44.726;10.396;2023-02-28T15:39:27;18.20;;;12.63;;
60416;SDS011;46263;44.726;10.396;2023-02-28T15:42:16;17.13;;;12.52;;
60416;SDS011;46263;44.726;10.396;2023-02-28T15:44:44;18.65;;;13.48;;
60416;SDS011;46263;44.726;10.396;2023-02-28T15:47:17;16.65;;;12.60;;
60416;SDS011;46263;44.726;10.396;2023-02-28T15:50:06;18.30;;;13.07;;
60416;SDS011;46263;44.726;10.396;2023-02-28T15:55:10;17.50;;;12.90;;
60416;SDS011;46263;44.726;10.396;2023-02-28T15:57:48;17.40;;;12.30;;
60416;SDS011;46263;44.726;10.396;2023-02-28T16:00:22;19.58;;;13.48;;
60416;SDS011;46263;44.726;10.396;2023-02-28T16:02:49;17.55;;;11.65;;
60416;SDS011;46263;44.726;10.396;2023-02-28T16:07:44;17.55;;;11.93;;
60416;SDS011;46263;44.726;10.396;2023-02-28T16:10:10;20.23;;;13.15;;
60416;SDS011;46263;44.726;10.396;2023-02-28T16:12:39;18.10;;;13.13;;
60416;SDS011;46263;44.726;10.396;2023-02-28T16:15:06;17.25;;;12.63;;
60416;SDS011;46263;44.726;10.396;2023-02-28T16:17:35;18.55;;;13.02;;
60416;SDS011;46263;44.726;10.396;2023-02-28T16:20:17;21.30;;;12.27;;
60416;SDS011;46263;44.726;10.396;2023-02-28T16:22:42;18.15;;;12.07;;
60416;SDS011;46263;44.726;10.396;2023-02-28T16:25:15;24.83;;;13.82;;
60416;SDS011;46263;44.726;10.396;2023-02-28T16:27:42;17.85;;;12.57;;
60416;SDS011;46263;44.726;10.396;2023-02-28T16:30:16;19.23;;;13.35;;
60416;SDS011;46263;44.726;10.396;2023-02-28T16:32:45;20.60;;;12.60;;
60416;SDS011;46263;44.726;10.396;2023-02-28T16:35:11;20.88;;;13.35;;
60416;SDS011;46263;44.726;10.396;2023-02-28T16:37:38;21.95;;;12.93;;
60416;SDS011;46263;44.726;10.396;2023-02-28T16:40:04;25.60;;;17.17;;
60416;SDS011;46263;44.726;10.396;2023-02-28T16:42:31;43.53;;;21.48;;
60416;SDS011;46263;44.726;10.396;2023-02-28T16:44:56;46.08;;;22.88;;
60416;SDS011;46263;44.726;10.396;2023-02-28T16:47:23;24.70;;;14.43;;
60416;SDS011;46263;44.726;10.396;2023-02-28T16:49:48;18.02;;;13.43;;
60416;SDS011;46263;44.726;10.396;2023-02-28T16:52:14;17.83;;;13.10;;
60416;SDS011;46263;44.726;10.396;2023-02-28T16:54:40;21.85;;;13.50;;
60416;SDS011;46263;44.726;10.396;2023-02-28T16:57:08;18.30;;;13.48;;
60416;SDS011;46263;44.726;10.396;2023-02-28T16:59:43;16.85;;;12.32;;
60416;SDS011;46263;44.726;10.396;2023-02-28T17:02:12;23.70;;;15.38;;
60416;SDS011;46263;44.726;10.396;2023-02-28T17:04:39;24.85;;;16.00;;
60416;SDS011;46263;44.726;10.396;2023-02-28T17:07:04;32.45;;;19.98;;
60416;SDS011;46263;44.726;10.396;2023-02-28T17:09:32;30.40;;;18.38;;
60416;SDS011;46263;44.726;10.396;2023-02-28T17:11:57;33.50;;;18.02;;
60416;SDS011;46263;44.726;10.396;2023-02-28T17:14:24;37.65;;;20.45;;
60416;SDS011;46263;44.726;10.396;2023-02-28T17:16:49;28.85;;;17.73;;
60416;SDS011;46263;44.726;10.396;2023-02-28T17:19:15;34.63;;;18.35;;